Time;durP1;ratioP1;P1;durP2;ratioP2;P2;SDS_P1;SDS_P2;PMS_P1;PMS_P2;Temp;Humidity;BMP_temperature;BMP_pressure;BME280_temperature;BME280_humidity;BME280_pressure;Samples;Min_cycle;Max_cycle;Signal;HPM_P1;HPM_P2
2023/01/12 00:01:47;;;;;;;;;5.00;4.00;;;;;10.40;70.87;101369.72;5038755;28;47347;-74
2023/01/12 00:04:14;;;;;;;;;6.67;3.67;;;;;10.97;71.54;101478.34;5022395;28;45442;-77
2023/01/12 00:06:40;;;;;;;;;3.67;3.00;;;;;11.08;71.05;101476.63;5040401;28;45531;-76
2023/01/12 00:09:06;;;;;;;;;5.67;3.33;;;;;11.08;71.58;101488.13;5040239;28;46171;-75
2023/01/12 00:11:32;;;;;;;;;8.67;2.67;;;;;11.09;72.19;101489.81;5038650;28;48902;-75
2023/01/12 00:13:58;;;;;;;;;6.33;4.00;;;;;11.09;72.07;101479.16;5039988;28;45347;-76
2023/01/12 00:16:33;;;;;;;;;6.67;5.00;;;;;10.21;72.59;101343.84;5040199;28;45325;-75
2023/01/12 00:19:03;;;;;;;;;6.33;4.33;;;;;11.07;72.52;101465.13;5040310;28;45736;-76
2023/01/12 00:21:33;;;;;;;;;7.00;6.00;;;;;10.96;72.93;101430.59;5021833;28;45651;-75
2023/01/12 00:23:58;;;;;;;;;4.67;1.00;;;;;10.73;72.78;101389.16;5039842;28;45487;-76
2023/01/12 00:26:23;;;;;;;;;6.00;4.33;;;;;10.82;72.69;101417.66;5022050;28;45474;-75
2023/01/12 00:28:49;;;;;;;;;12.00;5.33;;;;;10.94;72.94;101444.03;5022201;28;45614;-76
2023/01/12 00:31:14;;;;;;;;;5.33;3.00;;;;;10.82;72.63;101414.97;5039516;28;57588;-75
2023/01/12 00:33:39;;;;;;;;;3.67;3.33;;;;;11.07;73.11;101437.69;5039429;28;51755;-73
2023/01/12 00:36:09;;;;;;;;;3.33;2.00;;;;;11.09;72.86;101433.06;5040054;28;45309;-76
2023/01/12 00:38:35;;;;;;;;;8.67;2.67;;;;;11.04;72.76;101429.97;5039912;28;45344;-76
2023/01/12 00:46:48;;;;;;;;;6.00;3.33;;;;;10.65;71.76;101341.94;5039939;28;45360;-76
2023/01/12 00:49:14;;;;;;;;;2.33;2.33;;;;;10.51;71.35;101340.44;5039891;28;45447;-76
2023/01/12 00:51:39;;;;;;;;;8.00;2.33;;;;;11.23;71.79;101433.59;5039679;28;46762;-76
2023/01/12 00:54:07;;;;;;;;;4.33;2.00;;;;;10.83;71.42;101360.81;5040498;28;45305;-75
2023/01/12 00:56:33;;;;;;;;;2.33;2.00;;;;;9.55;70.46;101124.50;5042780;28;45531;-75
2023/01/12 00:58:59;;;;;;;;;6.00;4.33;;;;;10.81;71.16;101341.44;5042279;28;45308;-75
2023/01/12 01:01:24;;;;;;;;;7.33;3.00;;;;;10.91;70.87;101331.72;5021641;28;48569;-74
2023/01/12 01:03:50;;;;;;;;;3.33;2.33;;;;;11.06;70.59;101346.38;5021400;28;45483;-75
2023/01/12 01:06:15;;;;;;;;;2.00;2.00;;;;;8.87;70.65;101009.88;5038182;28;45412;-75
2023/01/12 01:08:40;;;;;;;;;8.67;5.00;;;;;11.15;70.96;101376.66;5039099;28;45986;-76
2023/01/12 01:11:09;;;;;;;;;6.67;4.33;;;;;10.32;70.76;101249.91;5038819;28;57787;-74
2023/01/12 01:13:36;;;;;;;;;2.00;2.00;;;;;10.91;70.50;101358.31;5022295;28;45783;-76
2023/01/12 01:16:04;;;;;;;;;5.00;2.33;;;;;10.37;70.70;101268.97;5039988;28;45510;-76
2023/01/12 01:18:30;;;;;;;;;4.00;2.67;;;;;10.89;70.87;101354.97;5039436;28;45393;-74
2023/01/12 01:20:56;;;;;;;;;5.00;2.67;;;;;11.11;70.58;101396.53;5038793;28;46594;-77
2023/01/12 01:23:24;;;;;;;;;3.00;3.00;;;;;10.78;70.52;101336.41;5038777;28;45486;-76
2023/01/12 01:25:50;;;;;;;;;4.00;4.00;;;;;11.00;70.87;101368.16;5039098;28;45304;-75
2023/01/12 01:28:16;;;;;;;;;4.67;4.00;;;;;11.16;70.49;101389.81;5037463;28;45586;-74
2023/01/12 01:30:42;;;;;;;;;3.67;2.00;;;;;11.15;70.50;101387.31;5020776;28;47588;-76
2023/01/12 01:33:07;;;;;;;;;3.00;3.00;;;;;10.95;70.72;101370.38;5039078;28;45358;-75
2023/01/12 01:35:34;;;;;;;;;5.33;2.67;;;;;11.08;70.78;101387.00;5037594;28;45297;-75
2023/01/12 01:38:00;;;;;;;;;4.67;4.00;;;;;11.04;71.08;101395.38;5039011;28;45264;-76
2023/01/12 01:40:25;;;;;;;;;2.33;2.33;;;;;10.24;70.98;101263.88;5020511;28;47469;-76
2023/01/12 01:42:50;;;;;;;;;4.67;2.67;;;;;11.03;71.49;101402.53;5020760;28;45572;-75
2023/01/12 01:45:16;;;;;;;;;8.33;4.00;;;;;10.72;71.21;101339.59;5038642;28;45468;-76
2023/01/12 01:47:46;;;;;;;;;3.33;1.67;;;;;10.10;71.78;101240.22;5038819;28;45287;-75
2023/01/12 01:50:21;;;;;;;;;3.25;2.00;;;;;10.95;71.74;101392.50;5020436;28;46812;-75
2023/01/12 01:52:58;;;;;;;;;5.00;3.00;;;;;10.76;72.01;101351.66;5020516;28;45924;-75
2023/01/12 01:55:33;;;;;;;;;5.00;2.33;;;;;10.91;72.11;101368.97;5038969;28;45294;-74
2023/01/12 01:58:08;;;;;;;;;5.00;2.00;;;;;10.84;71.89;101344.72;5039151;28;45286;-74
2023/01/12 02:00:36;;;;;;;;;3.00;2.00;;;;;10.46;71.98;101289.47;5038993;28;46552;-76
2023/01/12 02:03:03;;;;;;;;;7.33;3.00;;;;;10.86;72.21;101353.41;5038641;28;45313;-75
2023/01/12 02:05:29;;;;;;;;;7.33;4.00;;;;;10.91;71.59;101355.66;5020621;28;45474;-76
2023/01/12 02:08:01;;;;;;;;;3.00;2.50;;;;;10.66;72.45;101344.47;5020456;28;45486;-75
2023/01/12 02:10:26;;;;;;;;;4.00;4.00;;;;;10.88;72.26;101380.72;5038387;28;46207;-76
2023/01/12 02:19:04;;;;;;;;;4.67;4.00;;;;;10.41;72.19;101281.06;5038693;28;45305;-74
2023/01/12 02:21:50;;;;;;;;;2.67;2.67;;;;;11.04;72.36;101374.09;5018866;28;45700;-76
2023/01/12 02:24:24;;;;;;;;;4.00;2.00;;;;;10.97;72.42;101337.34;5038080;28;45480;-75
2023/01/12 02:27:17;;;;;;;;;5.00;2.33;;;;;11.06;71.92;101362.34;5036980;28;45375;-77
2023/01/12 02:30:20;;;;;;;;;3.33;1.00;;;;;11.07;71.82;101344.56;5037930;28;45556;-74
2023/01/12 02:32:45;;;;;;;;;5.67;1.67;;;;;11.07;72.07;101373.81;5038496;28;46705;-76
2023/01/12 02:35:19;;;;;;;;;4.33;3.33;;;;;11.04;72.21;101358.97;5037895;28;45489;-75
2023/01/12 02:38:02;;;;;;;;;4.33;1.33;;;;;10.58;72.15;101275.13;5038236;28;45209;-74
2023/01/12 02:40:50;;;;;;;;;3.33;2.00;;;;;10.93;71.58;101329.78;5038189;28;45233;-75
2023/01/12 02:43:27;;;;;;;;;7.00;2.00;;;;;10.92;72.26;101306.81;5037544;28;45742;-75
2023/01/12 02:46:01;;;;;;;;;7.00;2.67;;;;;11.05;71.58;101314.59;5019525;28;45746;-74
2023/01/12 02:48:35;;;;;;;;;6.00;4.00;;;;;11.15;72.24;101334.06;5037560;28;45416;-76
2023/01/12 02:51:05;;;;;;;;;3.00;3.00;;;;;10.83;72.05;101259.75;5037860;28;45266;-75
2023/01/12 02:53:48;;;;;;;;;4.00;3.00;;;;;11.12;71.58;101299.75;5039679;28;45784;-73
2023/01/12 02:56:21;;;;;;;;;3.00;2.00;;;;;10.99;72.16;101299.97;5039961;28;45483;-76
2023/01/12 02:58:51;;;;;;;;;2.00;1.67;;;;;11.16;71.21;101306.47;5037669;28;45323;-75
2023/01/12 03:01:19;;;;;;;;;4.00;2.00;;;;;9.12;71.36;100992.78;5037796;28;45210;-77
2023/01/12 03:03:48;;;;;;;;;2.67;1.33;;;;;11.20;71.27;101308.75;5037220;28;46575;-75
2023/01/12 03:06:16;;;;;;;;;5.67;3.00;;;;;11.22;71.31;101304.16;5037433;28;45487;-73
2023/01/12 03:08:43;;;;;;;;;3.67;2.33;;;;;10.94;71.37;101247.16;5037408;28;45321;-74
2023/01/12 03:11:14;;;;;;;;;3.67;1.33;;;;;11.20;71.36;101295.44;5036282;28;45277;-75
2023/01/12 03:13:46;;;;;;;;;2.67;1.67;;;;;10.95;71.56;101251.50;5035726;28;48771;-75
2023/01/12 03:16:16;;;;;;;;;7.33;4.00;;;;;11.20;70.97;101260.84;5037181;28;45387;-75
2023/01/12 03:18:53;;;;;;;;;2.00;2.00;;;;;11.30;71.62;101294.63;5037365;28;45421;-75
2023/01/12 03:21:31;;;;;;;;;4.00;3.00;;;;;11.07;72.23;101238.13;5037641;28;45476;-75
2023/01/12 03:24:10;;;;;;;;;4.50;2.50;;;;;11.30;72.43;101278.66;5019159;28;48583;-75
2023/01/12 03:26:40;;;;;;;;;5.00;2.33;;;;;10.82;72.16;101186.25;5038989;28;45306;-73
2023/01/12 03:29:14;;;;;;;;;5.00;3.67;;;;;11.03;72.70;101242.88;5043918;28;44858;-74
2023/01/12 03:31:39;;;;;;;;;5.00;3.00;;;;;11.15;72.47;101249.75;5022231;28;45310;-75
2023/01/12 03:34:06;;;;;;;;;6.67;2.00;;;;;11.19;72.89;101256.50;5040177;28;46820;-75
2023/01/12 03:36:37;;;;;;;;;3.33;3.33;;;;;10.81;72.69;101219.97;5040720;28;45517;-74
2023/01/12 03:39:20;;;;;;;;;4.33;2.67;;;;;10.51;72.70;101140.19;5040728;28;45290;-75
2023/01/12 03:42:00;;;;;;;;;2.67;2.67;;;;;11.18;72.84;101253.97;5040967;28;45457;-76
2023/01/12 03:44:40;;;;;;;;;7.67;2.00;;;;;11.11;73.19;101259.00;5040392;28;46353;-75
2023/01/12 03:47:15;;;;;;;;;2.00;1.67;;;;;10.57;73.69;101147.63;5040516;28;45404;-75
2023/01/12 03:49:46;;;;;;;;;4.33;1.00;;;;;11.15;73.74;101255.09;5040759;28;45301;-75
2023/01/12 03:52:12;;;;;;;;;3.67;1.00;;;;;10.73;74.00;101185.22;5040658;28;45431;-77
2023/01/12 03:54:40;;;;;;;;;4.67;2.00;;;;;10.02;73.85;101054.09;5022386;28;48516;-75
2023/01/12 03:57:09;;;;;;;;;4.00;1.67;;;;;10.94;73.80;101201.09;5040319;28;45316;-75
2023/01/12 03:59:35;;;;;;;;;2.33;1.00;;;;;10.62;73.60;101146.28;5040619;28;45217;-74
2023/01/12 04:02:01;;;;;;;;;1.00;1.00;;;;;10.96;74.32;101215.94;5040484;28;45514;-77
2023/01/12 04:04:26;;;;;;;;;7.33;4.00;;;;;11.04;74.31;101219.78;5040169;28;45840;-75
2023/01/12 04:06:52;;;;;;;;;5.00;2.33;;;;;10.39;73.91;101118.19;5040108;28;45500;-74
2023/01/12 04:09:17;;;;;;;;;0.67;0.33;;;;;10.89;74.50;101190.03;5021116;28;45553;-76
2023/01/12 04:14:43;;;;;;;;;1.00;1.00;;;;;10.91;74.56;101193.41;5020583;28;47207;-74
2023/01/12 04:17:12;;;;;;;;;3.67;2.33;;;;;10.73;74.76;101147.13;5052494;28;45462;-74
2023/01/12 04:19:38;;;;;;;;;3.00;1.00;;;;;10.98;74.26;101175.91;5060022;28;45401;-77
2023/01/12 04:24:48;;;;;;;;;8.00;3.00;;;;;10.65;74.21;101124.72;5060923;27;45786;-74
2023/01/12 04:27:14;;;;;;;;;8.00;3.33;;;;;10.95;74.08;101168.19;5059854;28;45471;-76
2023/01/12 04:29:40;;;;;;;;;6.00;2.33;;;;;11.06;74.29;101177.91;5074873;28;45520;-74
2023/01/12 04:32:05;;;;;;;;;1.33;1.33;;;;;10.26;74.01;101027.22;5079832;28;52183;-75
2023/01/12 04:34:30;;;;;;;;;4.00;3.00;;;;;10.24;74.09;101045.13;5061344;28;48029;-75
2023/01/12 04:36:56;;;;;;;;;5.00;2.00;;;;;10.85;74.21;101119.47;5062022;28;57417;-75
2023/01/12 04:39:21;;;;;;;;;6.67;3.00;;;;;11.04;74.09;101150.59;5080141;28;45310;-74
2023/01/12 04:41:46;;;;;;;;;3.67;2.00;;;;;10.77;73.61;101092.69;5080512;28;45447;-74
2023/01/12 04:44:12;;;;;;;;;5.00;3.00;;;;;11.07;73.96;101153.81;5078681;28;45706;-76
2023/01/12 04:46:38;;;;;;;;;3.00;1.33;;;;;10.99;73.47;101145.66;5079963;28;45286;-76
2023/01/12 04:49:03;;;;;;;;;9.00;3.67;;;;;11.10;73.68;101177.47;5061196;28;45518;-75
2023/01/12 04:51:29;;;;;;;;;3.67;3.33;;;;;11.01;73.43;101162.31;5061469;28;45506;-73
2023/01/12 04:53:54;;;;;;;;;4.00;3.00;;;;;11.03;73.12;101148.91;5079465;28;45866;-74
2023/01/12 04:56:20;;;;;;;;;6.33;4.00;;;;;11.16;72.79;101166.28;5079945;28;45474;-76
2023/01/12 04:58:45;;;;;;;;;8.33;6.00;;;;;9.75;72.55;100916.56;5079479;28;45198;-76
2023/01/12 05:01:16;;;;;;;;;3.67;3.67;;;;;10.98;72.50;101136.00;5079549;28;52976;-76
2023/01/12 05:03:42;;;;;;;;;2.00;2.00;;;;;11.20;72.74;101161.53;5079179;28;45679;-75
2023/01/12 05:06:07;;;;;;;;;2.00;2.00;;;;;10.59;72.41;101058.78;5078256;28;46627;-75
2023/01/12 05:11:17;;;;;;;;;8.67;3.00;;;;;11.31;72.76;101157.91;5079504;28;45349;-76
2023/01/12 05:13:43;;;;;;;;;6.33;3.67;;;;;11.02;72.45;101092.19;5078617;28;45798;-75
2023/01/12 05:16:10;;;;;;;;;5.00;4.00;;;;;11.19;72.70;101115.44;5074715;28;45401;-75
2023/01/12 05:18:36;;;;;;;;;3.33;1.00;;;;;11.34;72.40;101139.84;5040812;28;45373;-75
2023/01/12 05:21:02;;;;;;;;;3.00;3.00;;;;;10.56;72.32;101007.72;5059412;28;45285;-75
2023/01/12 05:23:27;;;;;;;;;3.33;2.33;;;;;11.00;72.21;101090.63;5058592;28;46233;-75
2023/01/12 05:25:52;;;;;;;;;4.67;2.00;;;;;10.80;72.81;101052.53;5058909;28;45579;-76
2023/01/12 05:28:18;;;;;;;;;5.67;2.00;;;;;11.36;72.65;101137.88;5058668;28;45397;-74
2023/01/12 05:30:43;;;;;;;;;1.75;1.75;;;;;11.10;72.36;101096.81;5058999;28;45264;-76
2023/01/12 05:33:15;;;;;;;;;3.67;1.67;;;;;11.42;72.54;101147.13;5058665;28;45737;-74
2023/01/12 05:35:40;;;;;;;;;2.33;2.33;;;;;11.38;72.57;101138.56;5040040;28;45744;-75
2023/01/12 05:38:06;;;;;;;;;4.67;4.33;;;;;10.88;72.35;101050.03;5058683;28;45264;-77
2023/01/12 05:40:31;;;;;;;;;2.00;2.00;;;;;10.87;72.64;101054.50;5058707;28;45214;-75
2023/01/12 05:45:40;;;;;;;;;1.67;1.33;;;;;11.17;72.57;101090.78;5042333;28;45225;-76
2023/01/12 05:48:08;;;;;;;;;3.33;2.33;;;;;11.32;72.74;101093.03;5038834;28;45293;-75
2023/01/12 05:50:33;;;;;;;;;2.67;2.67;;;;;11.45;73.03;101137.03;5020639;28;45312;-74
2023/01/12 05:52:59;;;;;;;;;4.00;3.00;;;;;10.79;72.50;101021.59;5038653;28;46809;-77
2023/01/12 05:55:24;;;;;;;;;3.33;2.67;;;;;11.48;72.30;101134.09;5038020;28;45464;-75
2023/01/12 05:57:49;;;;;;;;;6.00;3.00;;;;;11.17;72.54;101090.78;5021349;28;45289;-74
2023/01/12 06:00:15;;;;;;;;;3.00;2.00;;;;;11.45;72.65;101154.84;5026311;28;45545;-74
2023/01/12 06:02:41;;;;;;;;;2.33;1.33;;;;;11.08;72.74;101088.13;5041462;28;46021;-76
2023/01/12 06:05:08;;;;;;;;;3.00;2.00;;;;;11.46;72.68;101153.84;5020281;28;46113;-75
2023/01/12 06:07:34;;;;;;;;;5.33;2.00;;;;;10.68;72.91;101013.75;5038364;28;45198;-74
2023/01/12 06:09:59;;;;;;;;;2.67;2.67;;;;;11.42;73.47;101128.50;5050642;28;45322;-75
2023/01/12 06:15:08;;;;;;;;;5.33;3.00;;;;;11.48;73.49;101133.25;5058701;28;45455;-74
2023/01/12 06:17:34;;;;;;;;;3.00;2.67;;;;;11.28;74.69;101098.66;5059256;28;45241;-76
2023/01/12 06:19:59;;;;;;;;;5.33;3.67;;;;;11.24;74.85;101091.94;5058284;28;45237;-74
2023/01/12 06:22:26;;;;;;;;;2.00;2.00;;;;;11.50;74.06;101133.97;5055556;28;54962;-75
2023/01/12 06:24:52;;;;;;;;;4.33;3.00;;;;;11.44;74.50;101124.72;5044905;28;45444;-74
2023/01/12 06:27:18;;;;;;;;;3.00;2.00;;;;;11.25;74.42;101096.28;5033829;28;45511;-77
2023/01/12 06:29:43;;;;;;;;;4.00;2.33;;;;;11.19;74.28;101102.13;5052881;28;45556;-78
2023/01/12 06:32:08;;;;;;;;;3.00;1.00;;;;;11.30;74.29;101122.47;5028579;28;48511;-76
2023/01/12 06:34:34;;;;;;;;;4.33;1.33;;;;;11.23;74.51;101124.84;5039200;28;45620;-76
2023/01/12 06:37:01;;;;;;;;;5.00;3.00;;;;;10.70;74.20;101027.75;5057878;28;45396;-75
2023/01/12 06:39:27;;;;;;;;;5.67;3.00;;;;;10.94;74.34;101078.72;5052798;28;45570;-77
2023/01/12 06:44:46;;;;;;;;;3.00;1.00;;;;;11.46;74.31;101156.53;5049689;28;45536;-76
2023/01/12 06:47:12;;;;;;;;;1.00;1.00;;;;;11.51;73.86;101172.91;5055298;28;57045;-74
2023/01/12 06:49:37;;;;;;;;;1.67;1.00;;;;;11.55;74.04;101176.97;5051631;28;45226;-74
2023/01/12 06:52:02;;;;;;;;;2.33;2.00;;;;;11.55;74.06;101185.81;5046508;28;66651;-77
2023/01/12 06:54:29;;;;;;;;;2.33;1.33;;;;;11.33;73.90;101137.31;5052012;28;45525;-75
2023/01/12 06:56:55;;;;;;;;;2.67;1.00;;;;;10.92;74.03;101073.56;5036041;28;45176;-76
2023/01/12 06:59:20;;;;;;;;;5.33;2.33;;;;;11.60;73.75;101177.38;5023032;28;45251;-73
2023/01/12 07:01:45;;;;;;;;;4.00;1.00;;;;;11.63;73.47;101177.13;5057434;28;45674;-76
2023/01/12 07:04:11;;;;;;;;;3.00;1.00;;;;;11.65;73.99;101171.66;5050317;28;45253;-74
2023/01/12 07:06:36;;;;;;;;;1.33;1.00;;;;;11.73;74.39;101169.97;5056225;28;46008;-77
2023/01/12 07:09:02;;;;;;;;;6.67;2.00;;;;;10.76;74.80;101045.81;5056610;28;45195;-76
2023/01/12 07:11:27;;;;;;;;;3.00;2.00;;;;;11.27;76.02;101102.28;5057083;28;46359;-76
2023/01/12 07:13:54;;;;;;;;;1.67;1.67;;;;;10.76;76.15;101013.88;5046910;28;46318;-77
2023/01/12 07:16:19;;;;;;;;;6.33;4.00;;;;;10.66;76.34;101003.25;5037338;28;45627;-77
2023/01/12 07:18:45;;;;;;;;;3.00;1.67;;;;;11.33;76.75;101113.34;5042382;28;45491;-76
2023/01/12 07:21:13;;;;;;;;;2.67;1.00;;;;;11.23;77.44;101095.56;5039153;28;45841;-78
2023/01/12 07:23:42;;;;;;;;;4.67;1.00;;;;;11.08;77.35;101067.69;5019233;28;46221;-75
2023/01/12 07:26:08;;;;;;;;;1.67;1.67;;;;;11.48;77.52;101147.41;5041695;28;45429;-74
2023/01/12 07:28:33;;;;;;;;;3.67;2.00;;;;;11.11;78.47;101083.38;5039541;28;45529;-77
2023/01/12 07:31:00;;;;;;;;;3.67;3.67;;;;;11.46;77.88;101168.00;5039072;28;48218;-75
2023/01/12 07:33:25;;;;;;;;;4.33;3.67;;;;;11.42;77.91;101152.47;5057119;28;45372;-77
2023/01/12 07:35:51;;;;;;;;;2.00;2.00;;;;;11.24;78.10;101121.22;5042472;28;46070;-77
2023/01/12 07:38:16;;;;;;;;;3.33;1.67;;;;;11.46;77.50;101154.69;5037056;28;45414;-75
2023/01/12 07:40:41;;;;;;;;;2.00;1.67;;;;;11.35;77.66;101127.38;5018818;28;46487;-74
2023/01/12 07:43:08;;;;;;;;;4.00;2.33;;;;;11.13;77.34;101086.72;5037562;28;45369;-76
2023/01/12 07:45:34;;;;;;;;;39.33;32.67;;;;;11.50;76.99;101152.59;5038638;28;45328;-76
2023/01/12 07:47:59;;;;;;;;;6.00;2.67;;;;;10.83;76.74;101041.63;5048761;28;45182;-76
2023/01/12 07:50:26;;;;;;;;;4.00;2.00;;;;;11.39;76.46;101136.75;5043403;28;46326;-74
2023/01/12 07:52:53;;;;;;;;;3.33;1.67;;;;;11.45;76.21;101128.22;5042692;28;45338;-77
2023/01/12 07:55:19;;;;;;;;;4.00;2.67;;;;;11.23;76.12;101094.72;5058448;28;45404;-76
2023/01/12 07:57:56;;;;;;;;;5.33;2.00;;;;;11.49;75.54;101134.94;5059494;28;45284;-75
2023/01/12 08:00:22;;;;;;;;;2.67;2.00;;;;;11.54;75.08;101143.34;5030749;28;46566;-77
2023/01/12 08:02:53;;;;;;;;;7.00;2.33;;;;;11.33;74.91;101097.38;5037124;28;45483;-77
2023/01/12 08:05:20;;;;;;;;;2.00;2.00;;;;;11.70;74.69;101164.94;5025034;28;45444;-76
2023/01/12 08:07:46;;;;;;;;;5.67;2.00;;;;;11.56;74.64;101130.72;5043935;28;45715;-76
2023/01/12 08:10:12;;;;;;;;;4.00;2.00;;;;;11.40;74.95;101109.13;5025470;28;47596;-76
2023/01/12 08:12:38;;;;;;;;;1.67;0.00;;;;;11.70;74.46;101145.44;5038704;28;45527;-79
2023/01/12 08:15:04;;;;;;;;;3.67;2.00;;;;;11.51;74.83;101131.16;5035897;28;45526;-79
2023/01/12 08:17:35;;;;;;;;;2.00;2.00;;;;;11.55;74.78;101127.22;5036463;28;45361;-78
2023/01/12 08:20:07;;;;;;;;;2.67;1.00;;;;;10.92;74.75;101015.03;5039063;28;45953;-77
2023/01/12 08:22:38;;;;;;;;;2.67;1.00;;;;;11.48;74.24;101093.31;5026862;28;45321;-75
2023/01/12 08:25:12;;;;;;;;;6.67;3.00;;;;;11.42;74.36;101067.28;5045190;28;45508;-77
2023/01/12 08:27:41;;;;;;;;;1.67;0.67;;;;;11.79;74.18;101132.13;5060438;28;45166;-77
2023/01/12 08:30:08;;;;;;;;;2.67;1.33;;;;;11.59;74.37;101109.13;5057866;28;45511;-77
2023/01/12 08:32:35;;;;;;;;;1.67;0.67;;;;;11.76;74.88;101158.19;5044264;28;45305;-76
2023/01/12 08:35:03;;;;;;;;;1.33;1.00;;;;;11.59;75.12;101125.09;5040080;28;45466;-74
2023/01/12 08:37:31;;;;;;;;;2.00;1.00;;;;;11.64;74.91;101128.22;5040164;28;45484;-78
2023/01/12 08:39:57;;;;;;;;;2.67;1.33;;;;;11.44;75.10;101099.91;5021489;28;47804;-77
2023/01/12 08:42:24;;;;;;;;;1.00;0.00;;;;;11.48;75.47;101088.84;5021916;28;46220;-75
2023/01/12 08:44:50;;;;;;;;;1.00;1.00;;;;;11.70;75.97;101148.09;5049288;28;45551;-75
2023/01/12 08:47:19;;;;;;;;;1.00;1.00;;;;;11.51;75.65;101117.00;5058791;28;45281;-74
2023/01/12 08:49:45;;;;;;;;;5.00;3.00;;;;;11.74;75.99;101142.34;5056680;28;48448;-76
2023/01/12 08:52:11;;;;;;;;;1.00;1.00;;;;;11.78;75.99;101150.88;5059849;28;45480;-76
2023/01/12 08:54:37;;;;;;;;;2.33;1.00;;;;;11.75;75.88;101135.19;5062236;28;45292;-76
2023/01/12 08:57:03;;;;;;;;;4.33;2.00;;;;;11.92;75.63;101155.81;5046102;28;45654;-77
2023/01/12 08:59:28;;;;;;;;;1.00;1.00;;;;;11.50;76.05;101100.19;5041676;28;45735;-78
2023/01/12 09:01:54;;;;;;;;;3.67;1.00;;;;;11.75;75.77;101130.72;5039112;28;45345;-76
2023/01/12 09:04:19;;;;;;;;;6.00;3.67;;;;;11.62;76.49;101118.69;5021513;28;45526;-77
2023/01/12 09:06:45;;;;;;;;;3.00;0.33;;;;;11.95;76.56;101162.69;5023182;28;45494;-75
2023/01/12 09:09:14;;;;;;;;;3.00;1.00;;;;;11.74;77.08;101122.88;5029934;28;45609;-77
2023/01/12 09:11:41;;;;;;;;;3.33;1.33;;;;;11.65;76.93;101113.91;5038918;28;45265;-75
2023/01/12 09:14:07;;;;;;;;;4.33;2.33;;;;;11.98;77.24;101179.22;5058262;28;45368;-76
2023/01/12 09:16:33;;;;;;;;;4.33;0.33;;;;;11.83;77.21;101138.88;5055055;28;45607;-76
2023/01/12 09:18:59;;;;;;;;;3.00;1.00;;;;;11.99;78.28;101185.38;5095934;27;46686;-78
2023/01/12 09:21:26;;;;;;;;;4.00;3.00;;;;;11.96;78.59;101169.69;5065239;28;45930;-76
2023/01/12 09:23:52;;;;;;;;;2.33;2.33;;;;;11.63;78.34;101117.72;5058004;28;45328;-77
2023/01/12 09:26:24;;;;;;;;;1.67;1.67;;;;;11.16;78.24;101033.22;5061962;28;45434;-76
2023/01/12 09:28:50;;;;;;;;;2.00;1.00;;;;;11.12;78.85;101042.47;5059654;28;46371;-76
2023/01/12 09:31:18;;;;;;;;;3.00;2.00;;;;;11.99;78.74;101170.25;5059188;28;45250;-79
2023/01/12 09:33:44;;;;;;;;;3.67;2.33;;;;;11.57;78.85;101098.63;5060192;28;45342;-75
2023/01/12 09:36:13;;;;;;;;;2.00;2.00;;;;;11.69;79.00;101123.28;5085652;27;45397;-76
2023/01/12 09:38:40;;;;;;;;;3.67;1.00;;;;;11.85;78.52;101166.22;5075605;28;45747;-76
2023/01/12 09:47:33;;;;;;;;;5.67;3.00;;;;;12.10;78.40;101182.59;5078996;28;45389;-77
2023/01/12 09:50:04;;;;;;;;;3.00;2.00;;;;;12.06;78.28;101186.53;5073718;28;45842;-74
2023/01/12 09:52:35;;;;;;;;;4.33;2.00;;;;;11.44;78.26;101083.94;5078561;28;45239;-77
2023/01/12 09:55:00;;;;;;;;;3.33;2.33;;;;;12.04;78.89;101177.84;5078974;27;45413;-76
2023/01/12 09:57:45;;;;;;;;;3.33;2.00;;;;;12.00;78.71;101184.41;5072215;28;45531;-77
2023/01/12 10:00:12;;;;;;;;;5.67;3.00;;;;;11.74;78.47;101129.03;5078648;28;47504;-77
2023/01/12 10:02:44;;;;;;;;;7.00;3.00;;;;;11.08;78.57;101033.09;5077731;27;45485;-76
2023/01/12 10:05:42;;;;;;;;;4.00;3.00;;;;;11.91;79.02;101154.16;5078707;28;45493;-78
2023/01/12 10:08:22;;;;;;;;;3.67;2.00;;;;;12.03;78.43;101176.16;5067342;28;45493;-77
2023/01/12 10:11:16;;;;;;;;;2.00;2.00;;;;;11.55;78.80;101091.75;5076685;28;48705;-77
2023/01/12 10:13:51;;;;;;;;;3.00;1.00;;;;;12.16;78.17;101171.34;5078560;28;45489;-77
2023/01/12 10:16:49;;;;;;;;;3.00;2.50;;;;;12.14;77.77;101184.81;5077469;28;45443;-76
2023/01/12 10:19:29;;;;;;;;;1.00;1.00;;;;;12.20;77.73;101180.72;5078827;27;45624;-78
2023/01/12 10:21:55;;;;;;;;;3.00;3.00;;;;;11.88;77.85;101125.97;5073917;28;48386;-76
2023/01/12 10:24:24;;;;;;;;;3.67;2.67;;;;;11.90;77.24;101133.81;5071299;27;45900;-78
2023/01/12 10:27:02;;;;;;;;;2.00;1.00;;;;;12.14;77.43;101173.31;5077553;27;45513;-76
2023/01/12 10:29:30;;;;;;;;;2.75;2.25;;;;;11.75;78.24;101104.06;5074658;27;45457;-80
2023/01/12 10:31:56;;;;;;;;;5.25;2.00;;;;;12.08;78.50;101161.41;5077635;27;47955;-78
2023/01/12 10:34:22;;;;;;;;;2.00;2.00;;;;;11.82;78.54;101112.38;5076995;27;45756;-77
2023/01/12 10:36:49;;;;;;;;;4.33;2.00;;;;;11.45;78.73;101057.19;5071341;27;45426;-79
2023/01/12 10:39:29;;;;;;;;;52.33;35.00;;;;;11.50;79.14;101044.28;5080699;27;46033;-79
2023/01/12 10:45:22;;;;;;;;;15.33;4.67;;;;;12.30;78.83;101172.72;5078732;27;45612;-77
2023/01/12 10:47:51;;;;;;;;;10.67;5.67;;;;;11.88;78.78;101112.66;5080201;27;46173;-78
2023/01/12 10:50:26;;;;;;;;;6.67;4.67;;;;;12.11;78.84;101168.28;5086042;27;45421;-77
2023/01/12 10:53:01;;;;;;;;;21.67;15.67;;;;;12.16;78.89;101161.50;5097132;27;48272;-77
2023/01/12 10:55:38;;;;;;;;;7.00;6.00;;;;;11.86;78.69;101109.28;5096838;27;45443;-78
2023/01/12 10:58:04;;;;;;;;;10.33;7.67;;;;;11.97;78.75;101108.25;5063836;28;45408;-78
2023/01/12 11:00:30;;;;;;;;;4.00;3.00;;;;;12.25;78.10;101135.00;5077821;28;45959;-78
2023/01/12 11:02:56;;;;;;;;;2.33;2.00;;;;;12.39;78.27;101167.34;5059499;28;47278;-79
2023/01/12 11:05:26;;;;;;;;;3.00;2.33;;;;;12.24;78.12;101139.50;5059648;28;45293;-79
2023/01/12 11:07:52;;;;;;;;;6.33;3.33;;;;;12.01;77.91;101101.66;5059141;28;45420;-76
2023/01/12 11:10:29;;;;;;;;;5.33;3.00;;;;;11.99;77.77;101087.63;5064495;28;45475;-77
2023/01/12 11:13:03;;;;;;;;;5.00;5.00;;;;;12.05;77.40;101088.91;5073365;28;47538;-76
2023/01/12 11:15:29;;;;;;;;;1.50;1.00;;;;;11.57;77.12;100996.59;5064226;28;45336;-78
2023/01/12 11:18:22;;;;;;;;;4.00;4.00;;;;;12.11;77.12;101083.81;5076286;28;45606;-78
2023/01/12 11:20:54;;;;;;;;;5.33;3.00;;;;;12.44;76.25;101117.09;5062099;27;45493;-79
2023/01/12 11:23:31;;;;;;;;;6.67;3.00;;;;;12.17;76.36;101061.91;5059117;28;46961;-76
2023/01/12 11:25:59;;;;;;;;;5.00;4.33;;;;;12.64;76.15;101122.34;5069830;28;45564;-79
2023/01/12 11:28:43;;;;;;;;;10.33;7.00;;;;;12.50;76.01;101094.34;5054978;28;45653;-76
2023/01/12 11:31:20;;;;;;;;;5.33;3.67;;;;;12.71;75.68;101126.94;5086164;27;45787;-79
2023/01/12 11:33:54;;;;;;;;;4.00;2.00;;;;;12.55;75.08;101088.53;5067362;28;45393;-78
2023/01/12 11:36:25;;;;;;;;;7.00;3.00;;;;;12.36;75.06;101050.31;5074793;28;45376;-79
2023/01/12 11:38:55;;;;;;;;;2.67;2.67;;;;;12.29;75.21;101027.06;5073183;28;45581;-77
2023/01/12 11:41:24;;;;;;;;;1.33;1.33;;;;;12.33;75.52;101057.78;5067171;28;45267;-79
2023/01/12 11:43:54;;;;;;;;;2.50;2.25;;;;;12.86;74.89;101121.94;5065178;28;47635;-78
2023/01/12 11:46:25;;;;;;;;;2.33;1.00;;;;;12.77;75.27;101112.97;5060622;28;45893;-78
2023/01/12 11:49:22;;;;;;;;;2.67;2.67;;;;;12.88;75.58;101122.63;5072597;28;45375;-78
2023/01/12 11:51:52;;;;;;;;;2.67;2.67;;;;;12.45;75.61;101064.59;5064500;28;45410;-78
2023/01/12 11:54:18;;;;;;;;;4.00;2.67;;;;;12.58;75.42;101073.06;5077780;28;47238;-78
2023/01/12 11:56:55;;;;;;;;;2.67;2.67;;;;;12.83;75.19;101111.56;5069805;28;45781;-79
2023/01/12 11:59:56;;;;;;;;;4.00;2.00;;;;;12.28;75.26;101031.56;5060290;28;45394;-78
2023/01/12 12:02:55;;;;;;;;;2.00;1.00;;;;;12.75;76.03;101112.31;5061973;28;45450;-80
2023/01/12 12:05:39;;;;;;;;;3.00;1.67;;;;;12.77;75.64;101104.97;5064743;28;47827;-77
2023/01/12 12:08:08;;;;;;;;;2.00;2.00;;;;;12.76;75.47;101102.47;5077244;28;45569;-76
2023/01/12 12:10:46;;;;;;;;;6.00;1.33;;;;;12.40;75.68;101057.03;5079339;28;45291;-77
2023/01/12 12:13:26;;;;;;;;;4.00;2.33;;;;;12.76;76.31;101105.13;5075661;27;45423;-78